Terminal Aerodrome Forecast
Issued by NWS

Home | Current Version | Previous Version | Graphics & Text | Print | Product List | Glossary On
Versions: 1 2 3 4 5 6 7 8 9 10 11 12 13 14 15
000
FTUS43 KBIS 132300
TAFJMS
TAF
KJMS 132326Z 1400/1424 35021G27KT P6SM BKN040
     FM140200 34013KT P6SM SCT035
     FM141200 34011KT P6SM VCSH BKN025
     FM141800 34014G19KT P6SM SKC=

USA.gov is the U.S. government's official web portal to all federal, state and local government web resources and services.